sensor_id;sensor_type;location;lat;lon;timestamp;pressure;altitude;pressure_sealevel;temperature;humidity
55990;BME280;41875;55.806;38.082;2023-02-21T00:02:01;97100.38;;;-11.56;53.22
55990;BME280;41875;55.806;38.082;2023-02-21T00:04:47;97105.72;;;-11.44;52.87
55990;BME280;41875;55.806;38.082;2023-02-21T00:07:33;97105.63;;;-11.59;52.98
55990;BME280;41875;55.806;38.082;2023-02-21T00:10:19;97101.44;;;-11.60;53.07
55990;BME280;41875;55.806;38.082;2023-02-21T00:13:06;97098.56;;;-11.54;52.70
55990;BME280;41875;55.806;38.082;2023-02-21T00:15:52;97102.94;;;-11.56;52.32
55990;BME280;41875;55.806;38.082;2023-02-21T00:18:39;97107.78;;;-11.67;52.72
55990;BME280;41875;55.806;38.082;2023-02-21T00:21:26;97095.84;;;-11.51;52.93
55990;BME280;41875;55.806;38.082;2023-02-21T00:24:13;97099.56;;;-11.40;52.49
55990;BME280;41875;55.806;38.082;2023-02-21T00:26:59;97101.13;;;-11.54;52.47
55990;BME280;41875;55.806;38.082;2023-02-21T00:29:46;97100.88;;;-11.49;51.90
55990;BME280;41875;55.806;38.082;2023-02-21T00:32:32;97096.34;;;-11.44;51.73
55990;BME280;41875;55.806;38.082;2023-02-21T00:35:20;97100.38;;;-11.40;51.74
55990;BME280;41875;55.806;38.082;2023-02-21T00:38:06;97095.19;;;-11.38;51.49
55990;BME280;41875;55.806;38.082;2023-02-21T00:40:52;97089.34;;;-11.40;51.88
55990;BME280;41875;55.806;38.082;2023-02-21T00:43:39;97090.25;;;-11.41;51.47
55990;BME280;41875;55.806;38.082;2023-02-21T00:46:25;97088.75;;;-11.45;51.72
55990;BME280;41875;55.806;38.082;2023-02-21T00:49:11;97089.56;;;-11.61;51.39
55990;BME280;41875;55.806;38.082;2023-02-21T00:51:59;97081.34;;;-11.66;51.70
55990;BME280;41875;55.806;38.082;2023-02-21T00:54:44;97092.09;;;-11.77;51.96
55990;BME280;41875;55.806;38.082;2023-02-21T00:57:30;97079.38;;;-11.95;52.19
55990;BME280;41875;55.806;38.082;2023-02-21T01:00:18;97076.75;;;-11.93;52.41
55990;BME280;41875;55.806;38.082;2023-02-21T01:03:05;97075.94;;;-11.77;52.07
55990;BME280;41875;55.806;38.082;2023-02-21T01:05:51;97077.19;;;-11.69;51.61
55990;BME280;41875;55.806;38.082;2023-02-21T01:08:41;97066.81;;;-11.66;51.41
55990;BME280;41875;55.806;38.082;2023-02-21T01:11:27;97066.47;;;-11.75;51.73
55990;BME280;41875;55.806;38.082;2023-02-21T01:14:13;97064.31;;;-11.83;52.21
55990;BME280;41875;55.806;38.082;2023-02-21T01:16:59;97057.97;;;-11.92;52.15
55990;BME280;41875;55.806;38.082;2023-02-21T01:19:45;97052.41;;;-12.50;53.23
55990;BME280;41875;55.806;38.082;2023-02-21T01:22:33;97048.56;;;-12.23;52.55
55990;BME280;41875;55.806;38.082;2023-02-21T01:25:21;97044.56;;;-12.12;52.34
55990;BME280;41875;55.806;38.082;2023-02-21T01:28:07;97039.66;;;-12.32;51.98
55990;BME280;41875;55.806;38.082;2023-02-21T01:30:53;97038.19;;;-12.89;52.38
55990;BME280;41875;55.806;38.082;2023-02-21T01:33:40;97047.66;;;-12.74;53.60
55990;BME280;41875;55.806;38.082;2023-02-21T01:36:27;97041.03;;;-12.43;52.62
55990;BME280;41875;55.806;38.082;2023-02-21T01:39:13;97044.22;;;-12.39;52.16
55990;BME280;41875;55.806;38.082;2023-02-21T01:42:00;97036.06;;;-12.46;52.53
55990;BME280;41875;55.806;38.082;2023-02-21T01:44:47;97038.88;;;-12.85;54.07
55990;BME280;41875;55.806;38.082;2023-02-21T01:47:33;97033.25;;;-12.92;52.91
55990;BME280;41875;55.806;38.082;2023-02-21T01:50:22;97030.03;;;-12.78;51.78
55990;BME280;41875;55.806;38.082;2023-02-21T01:53:12;97023.84;;;-12.74;52.26
55990;BME280;41875;55.806;38.082;2023-02-21T01:56:00;97041.25;;;-13.00;52.26
55990;BME280;41875;55.806;38.082;2023-02-21T01:58:50;97043.25;;;-13.24;53.19
55990;BME280;41875;55.806;38.082;2023-02-21T02:01:42;97042.66;;;-13.12;53.01
55990;BME280;41875;55.806;38.082;2023-02-21T02:04:31;97035.22;;;-13.34;52.51
55990;BME280;41875;55.806;38.082;2023-02-21T02:07:18;97033.13;;;-13.43;53.41
55990;BME280;41875;55.806;38.082;2023-02-21T02:10:06;97043.72;;;-13.16;52.64
55990;BME280;41875;55.806;38.082;2023-02-21T02:13:11;97040.91;;;-13.46;52.94
55990;BME280;41875;55.806;38.082;2023-02-21T02:15:51;97050.88;;;-13.42;53.37
55990;BME280;41875;55.806;38.082;2023-02-21T02:18:44;97044.09;;;-13.60;53.62
55990;BME280;41875;55.806;38.082;2023-02-21T02:21:47;97044.09;;;-13.60;53.93
55990;BME280;41875;55.806;38.082;2023-02-21T02:24:42;97036.84;;;-13.51;53.73
55990;BME280;41875;55.806;38.082;2023-02-21T02:27:41;97042.56;;;-13.45;53.52
55990;BME280;41875;55.806;38.082;2023-02-21T02:36:39;97046.59;;;-13.59;53.40
55990;BME280;41875;55.806;38.082;2023-02-21T02:39:17;97049.78;;;-14.13;53.40
55990;BME280;41875;55.806;38.082;2023-02-21T02:41:56;97037.09;;;-13.74;53.45
55990;BME280;41875;55.806;38.082;2023-02-21T02:44:33;97031.84;;;-13.52;52.75
55990;BME280;41875;55.806;38.082;2023-02-21T02:47:07;97040.59;;;-14.15;53.23
55990;BME280;41875;55.806;38.082;2023-02-21T02:49:40;97028.00;;;-14.18;53.96
55990;BME280;41875;55.806;38.082;2023-02-21T02:52:11;97034.75;;;-13.98;54.26
55990;BME280;41875;55.806;38.082;2023-02-21T02:54:40;97025.06;;;-14.09;54.34
55990;BME280;41875;55.806;38.082;2023-02-21T02:57:09;97029.66;;;-14.17;54.18
55990;BME280;41875;55.806;38.082;2023-02-21T02:59:43;97018.00;;;-14.42;54.41
55990;BME280;41875;55.806;38.082;2023-02-21T03:02:40;97022.34;;;-14.06;54.14
55990;BME280;41875;55.806;38.082;2023-02-21T03:05:37;97026.84;;;-14.30;54.27
55990;BME280;41875;55.806;38.082;2023-02-21T03:08:19;97020.09;;;-14.71;55.07
55990;BME280;41875;55.806;38.082;2023-02-21T03:10:57;97016.13;;;-14.18;54.26
55990;BME280;41875;55.806;38.082;2023-02-21T03:13:40;97018.91;;;-14.83;54.70
55990;BME280;41875;55.806;38.082;2023-02-21T03:16:16;97016.72;;;-14.32;54.90
55990;BME280;41875;55.806;38.082;2023-02-21T03:18:47;97026.00;;;-14.71;54.92
55990;BME280;41875;55.806;38.082;2023-02-21T03:21:20;97025.19;;;-14.52;54.22
55990;BME280;41875;55.806;38.082;2023-02-21T03:23:53;97023.09;;;-14.42;54.14
55990;BME280;41875;55.806;38.082;2023-02-21T03:26:26;97024.38;;;-14.52;54.04
55990;BME280;41875;55.806;38.082;2023-02-21T03:29:06;97018.44;;;-14.72;54.34
55990;BME280;41875;55.806;38.082;2023-02-21T03:31:40;97014.16;;;-14.51;53.74
55990;BME280;41875;55.806;38.082;2023-02-21T03:34:11;97023.44;;;-14.50;53.61
55990;BME280;41875;55.806;38.082;2023-02-21T03:36:40;97021.59;;;-14.67;53.71
55990;BME280;41875;55.806;38.082;2023-02-21T03:39:12;97029.41;;;-14.51;53.92
55990;BME280;41875;55.806;38.082;2023-02-21T03:41:41;97018.47;;;-15.36;54.79
55990;BME280;41875;55.806;38.082;2023-02-21T03:44:10;97018.56;;;-15.17;54.92
55990;BME280;41875;55.806;38.082;2023-02-21T03:46:38;97018.25;;;-15.09;53.75
55990;BME280;41875;55.806;38.082;2023-02-21T03:49:07;97012.28;;;-15.08;53.91
55990;BME280;41875;55.806;38.082;2023-02-21T03:51:36;97026.31;;;-14.78;52.88
55990;BME280;41875;55.806;38.082;2023-02-21T03:54:04;97023.97;;;-14.83;53.66
55990;BME280;41875;55.806;38.082;2023-02-21T03:56:41;97014.38;;;-15.18;53.87
55990;BME280;41875;55.806;38.082;2023-02-21T03:59:22;97020.88;;;-14.90;53.58
55990;BME280;41875;55.806;38.082;2023-02-21T04:01:51;97021.53;;;-15.27;53.82
55990;BME280;41875;55.806;38.082;2023-02-21T04:04:21;96993.88;;;-15.13;53.53
55990;BME280;41875;55.806;38.082;2023-02-21T04:06:57;97009.16;;;-14.94;53.70
55990;BME280;41875;55.806;38.082;2023-02-21T04:09:26;97017.50;;;-15.11;53.31
55990;BME280;41875;55.806;38.082;2023-02-21T04:11:56;97007.50;;;-14.95;53.35
55990;BME280;41875;55.806;38.082;2023-02-21T04:14:25;97015.53;;;-15.04;53.87
55990;BME280;41875;55.806;38.082;2023-02-21T04:16:54;97012.59;;;-14.74;52.76
55990;BME280;41875;55.806;38.082;2023-02-21T04:19:23;97003.91;;;-14.49;52.41
55990;BME280;41875;55.806;38.082;2023-02-21T04:21:51;97004.28;;;-14.78;52.38
55990;BME280;41875;55.806;38.082;2023-02-21T04:24:21;96992.84;;;-15.09;52.97
55990;BME280;41875;55.806;38.082;2023-02-21T04:26:51;97007.72;;;-15.20;53.69
55990;BME280;41875;55.806;38.082;2023-02-21T04:29:23;97003.00;;;-15.09;53.12
55990;BME280;41875;55.806;38.082;2023-02-21T04:31:51;97015.72;;;-14.88;52.85
55990;BME280;41875;55.806;38.082;2023-02-21T04:34:22;97017.09;;;-14.60;52.68
55990;BME280;41875;55.806;38.082;2023-02-21T04:36:51;97013.00;;;-14.64;52.53
55990;BME280;41875;55.806;38.082;2023-02-21T04:39:20;97019.91;;;-14.47;52.32
55990;BME280;41875;55.806;38.082;2023-02-21T04:41:49;97019.88;;;-14.66;52.23
55990;BME280;41875;55.806;38.082;2023-02-21T04:44:18;97016.75;;;-14.52;52.47
55990;BME280;41875;55.806;38.082;2023-02-21T04:46:48;97019.66;;;-15.02;52.07
55990;BME280;41875;55.806;38.082;2023-02-21T04:49:16;97022.69;;;-15.14;53.37
55990;BME280;41875;55.806;38.082;2023-02-21T04:51:45;97024.47;;;-14.95;52.86
55990;BME280;41875;55.806;38.082;2023-02-21T04:54:13;97023.06;;;-15.03;53.16
55990;BME280;41875;55.806;38.082;2023-02-21T04:56:42;97023.41;;;-14.90;52.72
55990;BME280;41875;55.806;38.082;2023-02-21T04:59:10;97027.38;;;-15.25;52.80
55990;BME280;41875;55.806;38.082;2023-02-21T05:01:39;97024.53;;;-14.97;53.52
55990;BME280;41875;55.806;38.082;2023-02-21T05:04:09;97029.47;;;-14.52;52.53
55990;BME280;41875;55.806;38.082;2023-02-21T05:06:37;97030.31;;;-14.33;52.20
55990;BME280;41875;55.806;38.082;2023-02-21T05:09:06;97029.63;;;-14.76;52.17
55990;BME280;41875;55.806;38.082;2023-02-21T05:11:35;97038.22;;;-14.79;52.14
55990;BME280;41875;55.806;38.082;2023-02-21T05:14:03;97038.44;;;-14.85;53.08
55990;BME280;41875;55.806;38.082;2023-02-21T05:16:32;97037.47;;;-14.62;51.91
55990;BME280;41875;55.806;38.082;2023-02-21T05:19:00;97025.69;;;-14.44;51.92
55990;BME280;41875;55.806;38.082;2023-02-21T05:21:33;97023.53;;;-14.53;51.66
55990;BME280;41875;55.806;38.082;2023-02-21T05:24:04;97037.03;;;-14.51;51.71
55990;BME280;41875;55.806;38.082;2023-02-21T05:26:34;97036.03;;;-14.67;51.08
55990;BME280;41875;55.806;38.082;2023-02-21T05:29:03;97031.22;;;-14.74;51.77
55990;BME280;41875;55.806;38.082;2023-02-21T05:31:33;97038.28;;;-14.41;51.54
55990;BME280;41875;55.806;38.082;2023-02-21T05:34:01;97044.69;;;-14.32;50.94
55990;BME280;41875;55.806;38.082;2023-02-21T05:36:31;97033.63;;;-14.71;50.99
55990;BME280;41875;55.806;38.082;2023-02-21T05:39:00;97041.44;;;-14.75;51.90
55990;BME280;41875;55.806;38.082;2023-02-21T05:41:28;97039.34;;;-14.86;51.70
55990;BME280;41875;55.806;38.082;2023-02-21T05:43:57;97045.63;;;-15.15;52.15
55990;BME280;41875;55.806;38.082;2023-02-21T05:46:27;97041.84;;;-14.84;51.17
55990;BME280;41875;55.806;38.082;2023-02-21T05:48:57;97041.94;;;-15.08;51.35
55990;BME280;41875;55.806;38.082;2023-02-21T05:51:26;97040.31;;;-15.54;52.30
55990;BME280;41875;55.806;38.082;2023-02-21T05:53:57;97042.41;;;-15.21;52.41
55990;BME280;41875;55.806;38.082;2023-02-21T05:56:25;97043.09;;;-14.74;50.95
55990;BME280;41875;55.806;38.082;2023-02-21T05:58:54;97039.13;;;-15.23;51.50
55990;BME280;41875;55.806;38.082;2023-02-21T06:01:22;97046.56;;;-15.40;52.93
55990;BME280;41875;55.806;38.082;2023-02-21T06:03:51;97038.19;;;-14.99;51.41
55990;BME280;41875;55.806;38.082;2023-02-21T06:06:19;97045.97;;;-14.82;51.21
55990;BME280;41875;55.806;38.082;2023-02-21T06:08:49;97040.78;;;-14.60;51.24
55990;BME280;41875;55.806;38.082;2023-02-21T06:11:23;97044.31;;;-14.83;51.06
55990;BME280;41875;55.806;38.082;2023-02-21T06:13:54;97048.13;;;-14.93;51.44
55990;BME280;41875;55.806;38.082;2023-02-21T06:16:23;97027.06;;;-14.97;51.49
55990;BME280;41875;55.806;38.082;2023-02-21T06:18:54;97044.31;;;-14.83;51.94
55990;BME280;41875;55.806;38.082;2023-02-21T06:21:27;97052.69;;;-14.60;51.90
55990;BME280;41875;55.806;38.082;2023-02-21T06:23:55;97038.72;;;-14.91;51.78
55990;BME280;41875;55.806;38.082;2023-02-21T06:26:26;97047.53;;;-14.79;51.93
55990;BME280;41875;55.806;38.082;2023-02-21T06:28:55;97039.50;;;-15.32;52.93
55990;BME280;41875;55.806;38.082;2023-02-21T06:31:23;97040.97;;;-15.49;53.61
55990;BME280;41875;55.806;38.082;2023-02-21T06:33:52;97042.69;;;-15.06;52.83
55990;BME280;41875;55.806;38.082;2023-02-21T06:36:24;97048.38;;;-15.22;53.62
55990;BME280;41875;55.806;38.082;2023-02-21T06:38:55;97045.13;;;-15.03;52.51
55990;BME280;41875;55.806;38.082;2023-02-21T06:41:27;97041.31;;;-15.36;53.10
55990;BME280;41875;55.806;38.082;2023-02-21T06:43:57;97039.72;;;-15.60;54.36
55990;BME280;41875;55.806;38.082;2023-02-21T06:46:28;97042.06;;;-15.56;54.09
55990;BME280;41875;55.806;38.082;2023-02-21T06:48:57;97036.34;;;-14.96;53.68
55990;BME280;41875;55.806;38.082;2023-02-21T06:51:26;97055.66;;;-15.12;53.43
55990;BME280;41875;55.806;38.082;2023-02-21T06:53:56;97049.34;;;-15.24;53.39
55990;BME280;41875;55.806;38.082;2023-02-21T06:56:27;97060.41;;;-15.05;53.39
55990;BME280;41875;55.806;38.082;2023-02-21T06:58:56;97046.72;;;-15.23;54.65
55990;BME280;41875;55.806;38.082;2023-02-21T07:01:26;97057.47;;;-15.38;54.46
55990;BME280;41875;55.806;38.082;2023-02-21T07:03:56;97044.97;;;-14.59;53.22
55990;BME280;41875;55.806;38.082;2023-02-21T07:06:33;97044.94;;;-14.98;54.06
55990;BME280;41875;55.806;38.082;2023-02-21T07:09:02;97057.88;;;-14.63;53.67
55990;BME280;41875;55.806;38.082;2023-02-21T07:11:34;97060.41;;;-14.63;54.17
55990;BME280;41875;55.806;38.082;2023-02-21T07:14:03;97056.41;;;-15.10;55.00
55990;BME280;41875;55.806;38.082;2023-02-21T07:16:32;97050.66;;;-14.33;53.89
55990;BME280;41875;55.806;38.082;2023-02-21T07:19:00;97033.47;;;-13.88;53.34
55990;BME280;41875;55.806;38.082;2023-02-21T07:21:29;97052.09;;;-13.87;53.30
55990;BME280;41875;55.806;38.082;2023-02-21T07:23:58;97058.50;;;-14.37;54.53
55990;BME280;41875;55.806;38.082;2023-02-21T07:26:26;97054.50;;;-14.03;53.87
55990;BME280;41875;55.806;38.082;2023-02-21T07:28:57;97043.13;;;-13.21;52.47
55990;BME280;41875;55.806;38.082;2023-02-21T07:31:28;97047.41;;;-12.69;51.75
55990;BME280;41875;55.806;38.082;2023-02-21T07:33:56;97051.88;;;-13.27;53.15
55990;BME280;41875;55.806;38.082;2023-02-21T07:36:25;97055.16;;;-12.88;51.67
55990;BME280;41875;55.806;38.082;2023-02-21T07:38:53;97045.66;;;-11.84;50.35
55990;BME280;41875;55.806;38.082;2023-02-21T07:41:22;97050.34;;;-12.77;52.39
55990;BME280;41875;55.806;38.082;2023-02-21T07:43:50;97055.75;;;-12.32;52.19
55990;BME280;41875;55.806;38.082;2023-02-21T07:46:25;97057.09;;;-12.07;50.94
55990;BME280;41875;55.806;38.082;2023-02-21T07:48:54;97062.22;;;-12.24;51.89
55990;BME280;41875;55.806;38.082;2023-02-21T07:51:26;97060.34;;;-12.38;52.29
55990;BME280;41875;55.806;38.082;2023-02-21T07:53:55;97039.44;;;-11.80;50.49
55990;BME280;41875;55.806;38.082;2023-02-21T07:56:23;97049.44;;;-12.07;50.83
55990;BME280;41875;55.806;38.082;2023-02-21T07:58:52;97052.88;;;-12.08;52.21
55990;BME280;41875;55.806;38.082;2023-02-21T08:01:23;97066.41;;;-12.57;53.42
55990;BME280;41875;55.806;38.082;2023-02-21T08:03:52;97053.41;;;-11.69;51.82
55990;BME280;41875;55.806;38.082;2023-02-21T08:06:21;97057.06;;;-11.91;52.03
55990;BME280;41875;55.806;38.082;2023-02-21T08:08:49;97054.84;;;-11.81;52.41
55990;BME280;41875;55.806;38.082;2023-02-21T08:11:18;97054.06;;;-11.82;52.14
55990;BME280;41875;55.806;38.082;2023-02-21T08:13:47;97058.47;;;-11.85;52.92
55990;BME280;41875;55.806;38.082;2023-02-21T08:16:15;97054.69;;;-11.30;51.14
55990;BME280;41875;55.806;38.082;2023-02-21T08:18:47;97053.78;;;-11.13;51.49
55990;BME280;41875;55.806;38.082;2023-02-21T08:21:16;97065.03;;;-10.85;51.35
55990;BME280;41875;55.806;38.082;2023-02-21T08:23:45;97060.75;;;-10.25;49.60
55990;BME280;41875;55.806;38.082;2023-02-21T08:26:13;97053.00;;;-10.99;51.31
55990;BME280;41875;55.806;38.082;2023-02-21T08:28:42;97064.59;;;-10.77;51.13
55990;BME280;41875;55.806;38.082;2023-02-21T08:31:10;97068.25;;;-10.22;50.63
55990;BME280;41875;55.806;38.082;2023-02-21T08:33:39;97062.16;;;-10.64;51.31
55990;BME280;41875;55.806;38.082;2023-02-21T08:36:09;97069.91;;;-10.21;50.55
55990;BME280;41875;55.806;38.082;2023-02-21T08:38:38;97064.72;;;-10.95;52.18
55990;BME280;41875;55.806;38.082;2023-02-21T08:41:07;97065.56;;;-10.49;51.86
55990;BME280;41875;55.806;38.082;2023-02-21T08:43:36;97063.00;;;-10.35;51.29
55990;BME280;41875;55.806;38.082;2023-02-21T08:46:05;97063.38;;;-10.86;52.17
55990;BME280;41875;55.806;38.082;2023-02-21T08:48:35;97065.16;;;-10.72;51.72
55990;BME280;41875;55.806;38.082;2023-02-21T08:51:04;97066.22;;;-10.46;51.67
55990;BME280;41875;55.806;38.082;2023-02-21T08:53:34;97055.75;;;-10.72;52.20
55990;BME280;41875;55.806;38.082;2023-02-21T08:56:02;97065.00;;;-10.54;51.81
55990;BME280;41875;55.806;38.082;2023-02-21T08:58:31;97070.69;;;-10.35;51.59
55990;BME280;41875;55.806;38.082;2023-02-21T09:01:00;97074.94;;;-10.05;50.40
55990;BME280;41875;55.806;38.082;2023-02-21T09:03:28;97053.81;;;-10.08;50.82
55990;BME280;41875;55.806;38.082;2023-02-21T09:05:57;97067.53;;;-10.69;52.39
55990;BME280;41875;55.806;38.082;2023-02-21T09:08:26;97068.97;;;-10.79;52.47
55990;BME280;41875;55.806;38.082;2023-02-21T09:10:58;97071.91;;;-10.26;51.44
55990;BME280;41875;55.806;38.082;2023-02-21T09:13:27;97051.72;;;-10.45;51.25
55990;BME280;41875;55.806;38.082;2023-02-21T09:15:56;97068.69;;;-10.59;52.21
55990;BME280;41875;55.806;38.082;2023-02-21T09:18:25;97064.81;;;-9.50;50.00
55990;BME280;41875;55.806;38.082;2023-02-21T09:20:53;97068.03;;;-9.46;48.60
55990;BME280;41875;55.806;38.082;2023-02-21T09:23:24;97071.31;;;-9.59;49.19
55990;BME280;41875;55.806;38.082;2023-02-21T09:25:54;97069.97;;;-9.65;50.35
55990;BME280;41875;55.806;38.082;2023-02-21T09:28:24;97079.00;;;-10.46;51.59
55990;BME280;41875;55.806;38.082;2023-02-21T09:30:52;97066.91;;;-9.99;51.14
55990;BME280;41875;55.806;38.082;2023-02-21T09:33:22;97060.66;;;-9.24;49.33
55990;BME280;41875;55.806;38.082;2023-02-21T09:35:51;97052.16;;;-8.84;48.82
55990;BME280;41875;55.806;38.082;2023-02-21T09:38:20;97055.88;;;-9.15;47.96
55990;BME280;41875;55.806;38.082;2023-02-21T09:40:50;97055.84;;;-8.88;48.03
55990;BME280;41875;55.806;38.082;2023-02-21T09:43:28;97054.38;;;-9.05;47.94
55990;BME280;41875;55.806;38.082;2023-02-21T09:46:01;97050.63;;;-8.86;48.45
55990;BME280;41875;55.806;38.082;2023-02-21T09:48:31;97060.03;;;-9.27;49.46
55990;BME280;41875;55.806;38.082;2023-02-21T09:51:03;97054.69;;;-8.31;47.50
55990;BME280;41875;55.806;38.082;2023-02-21T09:53:36;97053.25;;;-8.22;46.84
55990;BME280;41875;55.806;38.082;2023-02-21T09:56:10;97059.00;;;-8.97;48.32
55990;BME280;41875;55.806;38.082;2023-02-21T09:58:42;97063.56;;;-9.57;48.98
55990;BME280;41875;55.806;38.082;2023-02-21T10:01:21;97054.66;;;-9.52;49.34
55990;BME280;41875;55.806;38.082;2023-02-21T10:03:56;97049.34;;;-8.40;48.23
55990;BME280;41875;55.806;38.082;2023-02-21T10:06:35;97051.78;;;-8.65;48.19
55990;BME280;41875;55.806;38.082;2023-02-21T10:09:12;97056.31;;;-8.68;47.49
55990;BME280;41875;55.806;38.082;2023-02-21T10:11:53;97061.03;;;-8.23;46.86
55990;BME280;41875;55.806;38.082;2023-02-21T10:14:37;97064.84;;;-7.64;46.53
55990;BME280;41875;55.806;38.082;2023-02-21T10:17:14;97063.09;;;-8.42;48.34
55990;BME280;41875;55.806;38.082;2023-02-21T10:19:48;97056.84;;;-8.37;48.70
55990;BME280;41875;55.806;38.082;2023-02-21T10:22:22;97070.66;;;-9.06;48.78
55990;BME280;41875;55.806;38.082;2023-02-21T10:24:53;97072.00;;;-9.70;50.79
55990;BME280;41875;55.806;38.082;2023-02-21T10:27:22;97062.38;;;-8.97;49.79
55990;BME280;41875;55.806;38.082;2023-02-21T10:29:56;97062.16;;;-8.66;49.27
55990;BME280;41875;55.806;38.082;2023-02-21T10:32:30;97074.81;;;-8.12;47.54
55990;BME280;41875;55.806;38.082;2023-02-21T10:34:59;97070.47;;;-8.37;47.68
55990;BME280;41875;55.806;38.082;2023-02-21T10:37:35;97082.53;;;-8.91;48.93
55990;BME280;41875;55.806;38.082;2023-02-21T10:40:26;97086.19;;;-9.64;51.05
55990;BME280;41875;55.806;38.082;2023-02-21T10:43:00;97085.31;;;-9.08;49.35
55990;BME280;41875;55.806;38.082;2023-02-21T10:45:34;97095.47;;;-8.26;47.94
55990;BME280;41875;55.806;38.082;2023-02-21T10:48:05;97091.56;;;-8.85;48.24
55990;BME280;41875;55.806;38.082;2023-02-21T10:50:39;97075.44;;;-9.00;49.61
55990;BME280;41875;55.806;38.082;2023-02-21T10:53:21;97092.84;;;-9.05;49.30
55990;BME280;41875;55.806;38.082;2023-02-21T10:56:23;97092.41;;;-9.12;49.33
55990;BME280;41875;55.806;38.082;2023-02-21T10:58:55;97097.97;;;-8.78;47.90
55990;BME280;41875;55.806;38.082;2023-02-21T11:01:34;97094.50;;;-8.91;48.83
55990;BME280;41875;55.806;38.082;2023-02-21T11:04:05;97094.00;;;-9.38;49.28
55990;BME280;41875;55.806;38.082;2023-02-21T11:06:36;97104.19;;;-9.09;48.84
55990;BME280;41875;55.806;38.082;2023-02-21T11:09:27;97105.22;;;-9.12;49.75
55990;BME280;41875;55.806;38.082;2023-02-21T11:12:02;97103.72;;;-9.01;49.63
55990;BME280;41875;55.806;38.082;2023-02-21T11:14:34;97101.03;;;-8.85;49.25
55990;BME280;41875;55.806;38.082;2023-02-21T11:17:21;97115.59;;;-9.28;50.51
55990;BME280;41875;55.806;38.082;2023-02-21T11:19:51;97115.03;;;-8.91;49.33
55990;BME280;41875;55.806;38.082;2023-02-21T11:22:22;97113.88;;;-9.42;50.27
55990;BME280;41875;55.806;38.082;2023-02-21T11:24:58;97119.31;;;-9.46;50.28
55990;BME280;41875;55.806;38.082;2023-02-21T11:27:30;97112.25;;;-9.43;50.06
55990;BME280;41875;55.806;38.082;2023-02-21T11:30:00;97122.25;;;-9.11;49.83
55990;BME280;41875;55.806;38.082;2023-02-21T11:32:35;97109.66;;;-8.74;48.62
55990;BME280;41875;55.806;38.082;2023-02-21T11:35:21;97113.88;;;-9.42;50.71
55990;BME280;41875;55.806;38.082;2023-02-21T11:37:54;97120.13;;;-9.60;51.13
55990;BME280;41875;55.806;38.082;2023-02-21T11:40:28;97104.16;;;-9.37;51.34
55990;BME280;41875;55.806;38.082;2023-02-21T11:43:18;97126.56;;;-9.11;50.81
55990;BME280;41875;55.806;38.082;2023-02-21T11:48:53;97138.59;;;-9.26;50.75
55990;BME280;41875;55.806;38.082;2023-02-21T11:51:32;97131.94;;;-9.01;49.70
55990;BME280;41875;55.806;38.082;2023-02-21T11:54:03;97132.50;;;-9.11;50.31
55990;BME280;41875;55.806;38.082;2023-02-21T11:59:34;97141.94;;;-9.11;50.23
55990;BME280;41875;55.806;38.082;2023-02-21T12:02:35;97144.44;;;-9.10;50.35
55990;BME280;41875;55.806;38.082;2023-02-21T12:05:17;97149.09;;;-9.16;49.57
55990;BME280;41875;55.806;38.082;2023-02-21T12:08:02;97134.09;;;-9.37;51.27
55990;BME280;41875;55.806;38.082;2023-02-21T12:10:40;97149.66;;;-8.84;50.09
55990;BME280;41875;55.806;38.082;2023-02-21T12:13:30;97145.56;;;-8.86;50.13
55990;BME280;41875;55.806;38.082;2023-02-21T12:16:10;97152.94;;;-9.09;50.05
55990;BME280;41875;55.806;38.082;2023-02-21T12:18:59;97159.25;;;-9.15;50.42
55990;BME280;41875;55.806;38.082;2023-02-21T12:21:41;97169.66;;;-9.45;49.97
55990;BME280;41875;55.806;38.082;2023-02-21T12:24:24;97152.94;;;-9.09;49.53
55990;BME280;41875;55.806;38.082;2023-02-21T12:27:01;97157.25;;;-8.55;48.61
55990;BME280;41875;55.806;38.082;2023-02-21T12:29:49;97171.09;;;-9.70;50.05
55990;BME280;41875;55.806;38.082;2023-02-21T12:32:48;97164.75;;;-9.21;49.73
55990;BME280;41875;55.806;38.082;2023-02-21T12:38:52;97174.03;;;-8.91;47.96
55990;BME280;41875;55.806;38.082;2023-02-21T12:41:32;97173.38;;;-9.22;49.39
55990;BME280;41875;55.806;38.082;2023-02-21T12:44:11;97197.41;;;-9.38;49.56
55990;BME280;41875;55.806;38.082;2023-02-21T12:46:46;97195.75;;;-9.53;49.77
55990;BME280;41875;55.806;38.082;2023-02-21T12:49:19;97198.31;;;-9.24;49.82
55990;BME280;41875;55.806;38.082;2023-02-21T12:51:54;97204.25;;;-9.24;49.41
55990;BME280;41875;55.806;38.082;2023-02-21T12:54:35;97213.22;;;-9.02;48.41
55990;BME280;41875;55.806;38.082;2023-02-21T12:57:08;97214.59;;;-9.25;49.41
55990;BME280;41875;55.806;38.082;2023-02-21T12:59:48;97215.69;;;-9.44;49.48
55990;BME280;41875;55.806;38.082;2023-02-21T13:02:24;97214.66;;;-9.41;49.90
55990;BME280;41875;55.806;38.082;2023-02-21T13:04:57;97231.88;;;-9.43;49.72
55990;BME280;41875;55.806;38.082;2023-02-21T13:07:34;97225.38;;;-9.49;49.75
55990;BME280;41875;55.806;38.082;2023-02-21T13:10:13;97220.50;;;-9.83;51.03
55990;BME280;41875;55.806;38.082;2023-02-21T13:12:44;97222.41;;;-9.86;50.85
55990;BME280;41875;55.806;38.082;2023-02-21T13:15:18;97234.41;;;-9.72;49.84
55990;BME280;41875;55.806;38.082;2023-02-21T13:17:54;97222.44;;;-9.72;49.41
55990;BME280;41875;55.806;38.082;2023-02-21T13:20:25;97238.31;;;-9.81;50.39
55990;BME280;41875;55.806;38.082;2023-02-21T13:26:20;97260.78;;;-10.01;50.44
55990;BME280;41875;55.806;38.082;2023-02-21T13:28:52;97245.22;;;-10.28;50.72
55990;BME280;41875;55.806;38.082;2023-02-21T13:31:23;97250.72;;;-10.20;50.81
55990;BME280;41875;55.806;38.082;2023-02-21T13:33:55;97256.28;;;-10.12;50.68
55990;BME280;41875;55.806;38.082;2023-02-21T13:36:26;97243.56;;;-10.29;51.43
55990;BME280;41875;55.806;38.082;2023-02-21T13:38:59;97269.34;;;-10.16;51.12
55990;BME280;41875;55.806;38.082;2023-02-21T13:41:34;97261.91;;;-10.21;51.33
55990;BME280;41875;55.806;38.082;2023-02-21T13:44:06;97265.19;;;-10.19;50.49